createdAt,value
2023-02-08T00:45:04.699Z,-9.40
2023-02-08T00:52:28.208Z,-9.40
2023-02-08T01:41:43.919Z,-9.50
2023-02-08T01:46:51.192Z,-9.60
2023-02-08T01:52:13.149Z,-9.70
2023-02-08T01:54:57.346Z,-9.70
2023-02-08T01:57:26.213Z,-9.80
2023-02-08T02:00:01.601Z,-9.80
2023-02-08T02:07:28.836Z,-9.80
2023-02-08T02:20:08.392Z,-9.90
2023-02-08T02:23:13.933Z,-10.00
2023-02-08T02:26:22.360Z,-10.00
2023-02-08T02:29:20.298Z,-9.90
2023-02-08T02:32:19.954Z,-10.10
2023-02-08T02:35:07.676Z,-10.10
2023-02-08T02:37:58.956Z,-10.10
2023-02-08T02:41:13.931Z,-10.20
2023-02-08T02:43:52.954Z,-10.20
2023-02-08T02:49:38.931Z,-10.10
2023-02-08T02:54:58.259Z,-10.20
2023-02-08T02:57:32.526Z,-10.20
2023-02-08T03:04:57.527Z,-10.10
2023-02-08T03:13:23.987Z,-10.10
2023-02-08T03:16:08.669Z,-10.30
2023-02-08T03:18:55.914Z,-10.30
2023-02-08T03:21:33.491Z,-10.60
2023-02-08T03:24:23.343Z,-10.20
2023-02-08T03:27:00.943Z,-10.20
2023-02-08T03:30:00.140Z,-10.20
2023-02-08T03:32:43.268Z,-10.20
2023-02-08T03:35:36.392Z,-10.20
2023-02-08T03:38:19.492Z,-10.20
2023-02-08T03:40:51.762Z,-10.30
2023-02-08T03:43:28.257Z,-10.30
2023-02-08T03:46:12.394Z,-10.30
2023-02-08T03:48:45.041Z,-10.30
2023-02-08T03:53:42.909Z,-10.10
2023-02-08T04:01:38.485Z,-10.30
2023-02-08T04:06:33.614Z,-7.50
2023-02-08T04:45:51.597Z,-10.10
2023-02-08T04:48:19.813Z,-10.00
2023-02-08T05:30:07.600Z,-10.40
2023-02-08T05:44:52.434Z,-9.70
2023-02-08T06:36:28.203Z,-10.40
2023-02-08T07:26:04.736Z,-9.50
2023-02-08T08:00:28.081Z,-8.50
2023-02-08T08:20:11.040Z,-7.90
2023-02-08T08:22:38.222Z,-7.70
2023-02-08T08:39:52.621Z,-6.80
2023-02-08T08:52:12.820Z,-5.90
2023-02-08T09:02:02.421Z,-5.50
2023-02-08T09:06:56.698Z,-5.10
2023-02-08T09:09:23.568Z,-5.00
2023-02-08T09:11:51.021Z,-4.90
2023-02-08T09:19:16.284Z,-4.60
2023-02-08T09:29:07.092Z,-4.00
2023-02-08T09:31:37.821Z,-3.70
2023-02-08T09:34:06.096Z,-3.50
2023-02-08T09:36:36.385Z,-3.20
2023-02-08T09:39:14.708Z,-2.90
2023-02-08T09:41:53.734Z,-2.40
2023-02-08T09:45:21.584Z,-2.10
2023-02-08T09:47:50.989Z,-1.40
2023-02-08T09:50:45.397Z,-1.00
2023-02-08T09:53:22.672Z,-1.20
2023-02-08T09:56:00.715Z,-0.40
2023-02-08T09:58:41.946Z,1.10
2023-02-08T10:01:21.444Z,-0.20
2023-02-08T10:03:53.919Z,0.20
2023-02-08T10:06:21.158Z,0.50
2023-02-08T10:08:51.211Z,0.60
2023-02-08T10:11:36.072Z,0.70
2023-02-08T10:14:18.673Z,0.80
2023-02-08T10:17:19.208Z,0.90
2023-02-08T10:20:16.179Z,1.00
2023-02-08T10:22:59.201Z,1.20
2023-02-08T10:26:18.547Z,1.20
2023-02-08T10:29:19.447Z,1.30
2023-02-08T10:32:35.296Z,1.30
2023-02-08T10:35:15.777Z,1.60
2023-02-08T10:37:44.766Z,1.50
2023-02-08T10:40:36.862Z,1.70
2023-02-08T10:43:17.959Z,1.80
2023-02-08T10:45:56.098Z,2.00
2023-02-08T10:48:52.917Z,2.20
2023-02-08T10:51:21.349Z,2.40
2023-02-08T10:53:48.958Z,2.60
2023-02-08T10:56:44.706Z,2.80
2023-02-08T10:59:35.920Z,3.00
2023-02-08T11:02:03.081Z,3.10
2023-02-08T11:04:30.038Z,3.30
2023-02-08T11:06:57.057Z,3.30
2023-02-08T11:09:32.390Z,3.40
2023-02-08T11:12:01.304Z,4.80
2023-02-08T11:14:47.127Z,3.50
2023-02-08T11:17:31.959Z,3.50
2023-02-08T11:19:59.735Z,3.60
2023-02-08T11:22:31.289Z,3.60
2023-02-08T11:25:05.648Z,3.80
2023-02-08T11:27:40.451Z,4.00
2023-02-08T11:30:13.870Z,4.30
2023-02-08T11:32:47.101Z,4.60
2023-02-08T11:35:24.703Z,5.00
2023-02-08T11:37:55.530Z,5.30
2023-02-08T11:40:30.046Z,5.60
2023-02-08T11:42:57.660Z,7.40
2023-02-08T11:45:36.274Z,6.00
2023-02-08T11:48:05.039Z,6.20
2023-02-08T11:50:38.357Z,6.50
2023-02-08T11:53:19.331Z,6.70
2023-02-08T11:55:46.247Z,8.90
2023-02-08T11:58:13.010Z,7.30
2023-02-08T12:00:41.077Z,7.60
2023-02-08T12:03:36.595Z,10.40
2023-02-08T12:07:02.591Z,9.00
2023-02-08T12:10:07.335Z,8.10
2023-02-08T12:12:38.446Z,8.10
2023-02-08T12:15:28.683Z,8.10
2023-02-08T12:18:26.730Z,7.90
2023-02-08T12:21:10.718Z,7.70
2023-02-08T12:23:47.724Z,7.40
2023-02-08T12:26:52.644Z,7.20
2023-02-08T12:29:47.313Z,7.00
2023-02-08T12:33:07.273Z,7.00
2023-02-08T12:36:11.244Z,7.20
2023-02-08T12:39:23.331Z,7.20
2023-02-08T12:42:10.421Z,7.20
2023-02-08T12:45:33.893Z,7.30
2023-02-08T12:48:58.351Z,6.80
2023-02-08T12:51:55.323Z,6.50
2023-02-08T12:54:36.391Z,6.30
2023-02-08T12:57:05.770Z,6.20
2023-02-08T12:59:40.245Z,6.20
2023-02-08T13:02:33.156Z,6.20
2023-02-08T13:05:05.270Z,6.30
2023-02-08T13:07:39.370Z,6.40
2023-02-08T13:10:31.848Z,7.60
2023-02-08T13:13:16.665Z,6.60
2023-02-08T13:15:50.614Z,6.80
2023-02-08T13:18:46.526Z,7.00
2023-02-08T13:21:20.040Z,6.90
2023-02-08T13:23:52.953Z,6.90
2023-02-08T13:26:27.686Z,7.00
2023-02-08T13:28:59.425Z,6.90
2023-02-08T13:31:41.370Z,7.80
2023-02-08T13:34:28.398Z,7.00
2023-02-08T13:36:59.912Z,7.10
2023-02-08T13:39:46.806Z,7.20
2023-02-08T13:42:39.710Z,7.30
2023-02-08T13:45:09.372Z,7.30
2023-02-08T13:47:51.990Z,7.30
2023-02-08T13:50:52.799Z,8.30
2023-02-08T13:53:39.609Z,6.80
2023-02-08T13:56:13.143Z,6.20
2023-02-08T13:58:42.738Z,5.70
2023-02-08T14:01:24.247Z,5.30
2023-02-08T14:04:12.146Z,4.90
2023-02-08T14:06:41.926Z,4.50
2023-02-08T14:09:51.308Z,4.10
2023-02-08T14:12:34.607Z,3.90
2023-02-08T14:15:15.222Z,5.20
2023-02-08T14:17:51.354Z,3.40
2023-02-08T14:20:39.803Z,6.60
2023-02-08T14:23:27.809Z,3.00
2023-02-08T14:25:57.544Z,2.80
2023-02-08T14:28:34.220Z,2.70
2023-02-08T14:31:07.249Z,2.70
2023-02-08T14:33:54.066Z,2.60
2023-02-08T14:36:34.309Z,2.50
2023-02-08T14:39:25.084Z,2.30
2023-02-08T14:42:01.040Z,2.30
2023-02-08T14:44:43.178Z,2.30
2023-02-08T14:47:25.187Z,2.30
2023-02-08T14:50:11.497Z,2.30
2023-02-08T14:52:39.290Z,-1.20
2023-02-08T14:55:26.954Z,2.20
2023-02-08T14:58:00.863Z,2.30
2023-02-08T15:00:34.685Z,2.20
2023-02-08T15:03:04.462Z,2.00
2023-02-08T15:05:41.922Z,2.10
2023-02-08T15:08:09.117Z,2.00
2023-02-08T15:10:45.028Z,3.60
2023-02-08T15:13:24.289Z,1.90
2023-02-08T15:15:57.593Z,1.80
2023-02-08T15:18:31.032Z,1.80
2023-02-08T15:21:04.897Z,1.70
2023-02-08T15:23:32.016Z,1.60
2023-02-08T15:26:05.905Z,1.40
2023-02-08T15:28:37.123Z,1.30
2023-02-08T15:31:10.212Z,1.10
2023-02-08T15:33:44.922Z,1.00
2023-02-08T15:36:35.332Z,0.90
2023-02-08T15:39:25.742Z,0.70
2023-02-08T15:41:57.096Z,0.50
2023-02-08T15:44:31.494Z,0.50
2023-02-08T15:47:05.542Z,0.30
2023-02-08T15:49:37.231Z,0.30
2023-02-08T15:52:05.389Z,0.20
2023-02-08T15:54:32.429Z,0.10
2023-02-08T15:57:08.036Z,0.10
2023-02-08T15:59:40.079Z,-0.10
2023-02-08T16:02:31.216Z,-0.10
2023-02-08T16:05:10.775Z,-0.20
2023-02-08T16:07:48.801Z,-0.40
2023-02-08T16:10:24.165Z,-0.40
2023-02-08T16:12:59.570Z,-0.50
2023-02-08T16:15:46.940Z,-0.50
2023-02-08T16:18:32.652Z,-0.50
2023-02-08T16:21:02.023Z,-0.60
2023-02-08T16:23:35.066Z,-0.50
2023-02-08T16:26:28.487Z,-0.70
2023-02-08T16:29:21.744Z,-0.90
2023-02-08T16:31:57.608Z,-1.00
2023-02-08T16:34:24.672Z,-1.00
2023-02-08T16:36:52.681Z,-1.10
2023-02-08T16:39:23.599Z,-1.20
2023-02-08T16:41:58.828Z,-1.20
2023-02-08T16:44:35.975Z,-1.30
2023-02-08T16:47:35.438Z,-1.40
2023-02-08T16:54:58.545Z,-1.40
2023-02-08T17:00:24.071Z,-1.60
2023-02-08T17:02:52.515Z,-1.60
2023-02-08T17:05:21.915Z,-1.70
2023-02-08T17:07:50.145Z,-1.80
2023-02-08T17:10:31.328Z,-1.90
2023-02-08T17:13:18.859Z,-1.90
2023-02-08T17:15:49.997Z,-2.00
2023-02-08T17:18:17.072Z,-2.00
2023-02-08T17:20:44.176Z,-2.00
2023-02-08T17:25:39.480Z,-2.10
2023-02-08T17:28:18.233Z,-2.10
2023-02-08T17:30:46.275Z,-2.10
2023-02-08T17:35:50.477Z,-2.20
2023-02-08T17:38:19.296Z,-2.30
2023-02-08T17:40:46.705Z,-2.40
2023-02-08T17:45:44.148Z,-2.40
2023-02-08T17:48:13.528Z,-2.50
2023-02-08T17:50:43.941Z,-2.50
2023-02-08T17:55:42.754Z,-2.80
2023-02-08T17:58:09.966Z,-2.70
2023-02-08T18:15:24.067Z,-2.80
2023-02-08T18:17:51.030Z,-2.90
2023-02-08T18:20:18.382Z,-2.90
2023-02-08T18:30:11.566Z,-3.20
2023-02-08T18:35:07.931Z,-3.10
2023-02-08T18:37:36.594Z,-3.20
2023-02-08T18:40:05.986Z,-3.30
2023-02-08T18:42:35.708Z,-3.30
2023-02-08T18:47:31.347Z,-3.40
2023-02-08T19:02:22.335Z,-3.60
2023-02-08T19:12:15.551Z,-3.90
2023-02-08T19:19:41.636Z,-3.90
2023-02-08T19:36:55.233Z,-4.00
2023-02-08T19:39:27.206Z,-4.10
2023-02-08T19:44:22.617Z,-4.20
2023-02-08T19:46:52.996Z,-4.10
2023-02-08T19:49:20.793Z,-4.30
2023-02-08T19:54:18.341Z,-4.50
2023-02-08T19:59:29.297Z,-4.60
2023-02-08T20:06:53.298Z,-4.60
2023-02-08T20:24:15.983Z,-4.30
2023-02-08T20:26:45.621Z,-4.50
2023-02-08T20:29:13.441Z,-4.60
2023-02-08T20:31:43.597Z,-4.70
2023-02-08T20:34:14.232Z,-4.60
2023-02-08T20:39:20.702Z,-4.80
2023-02-08T20:41:48.131Z,-4.70
2023-02-08T20:44:17.924Z,-4.70
2023-02-08T20:46:45.200Z,-4.60
2023-02-08T20:49:15.216Z,-4.60
2023-02-08T20:54:11.404Z,-4.80
2023-02-08T20:59:09.154Z,-4.70
2023-02-08T21:04:05.410Z,-4.90
2023-02-08T21:06:36.409Z,-4.90
2023-02-08T21:09:11.121Z,-5.00
2023-02-08T21:14:06.743Z,-5.20
2023-02-08T21:23:57.893Z,-5.30
2023-02-08T21:26:26.301Z,-5.30
2023-02-08T21:28:58.657Z,-5.30
2023-02-08T21:36:23.785Z,-5.40
2023-02-08T21:41:26.592Z,-5.40
2023-02-08T21:43:56.836Z,-5.50
2023-02-08T21:49:16.955Z,-5.60
2023-02-08T21:52:03.276Z,-5.70
2023-02-08T21:54:43.938Z,-5.50
2023-02-08T21:57:37.807Z,-5.70
2023-02-08T22:07:45.738Z,-5.80
2023-02-08T22:10:16.360Z,-5.90
2023-02-08T22:15:14.359Z,-5.90
2023-02-08T22:20:10.621Z,-6.00
2023-02-08T22:39:49.395Z,-6.90
2023-02-08T22:44:45.142Z,-6.40
2023-02-08T22:47:13.238Z,-3.00
2023-02-08T22:52:08.827Z,-6.50
2023-02-08T22:59:33.810Z,-6.60
2023-02-08T23:19:18.568Z,-6.90
2023-02-08T23:46:24.992Z,-7.00
2023-02-08T23:51:22.931Z,-7.20
2023-02-08T23:53:51.098Z,-7.20
2023-02-08T23:56:22.143Z,-7.30
2023-02-08T23:58:52.886Z,-7.40
